sensor_id;sensor_type;location;lat;lon;timestamp;P1;durP1;ratioP1;P2;durP2;ratioP2
51556;SDS011;38766;53.194;5.532;2022-07-10T00:00:30;6.18;;;1.52;;
51556;SDS011;38766;53.194;5.532;2022-07-10T00:02:57;5.90;;;1.67;;
51556;SDS011;38766;53.194;5.532;2022-07-10T00:05:23;8.80;;;2.03;;
51556;SDS011;38766;53.194;5.532;2022-07-10T00:07:50;6.80;;;1.75;;
51556;SDS011;38766;53.194;5.532;2022-07-10T00:10:17;9.52;;;2.50;;
51556;SDS011;38766;53.194;5.532;2022-07-10T00:12:43;7.03;;;2.15;;
51556;SDS011;38766;53.194;5.532;2022-07-10T00:15:10;6.72;;;1.85;;
51556;SDS011;38766;53.194;5.532;2022-07-10T00:17:36;4.45;;;1.70;;
51556;SDS011;38766;53.194;5.532;2022-07-10T00:20:04;9.30;;;2.63;;
51556;SDS011;38766;53.194;5.532;2022-07-10T00:22:32;5.38;;;2.13;;
51556;SDS011;38766;53.194;5.532;2022-07-10T00:25:00;10.82;;;4.43;;
51556;SDS011;38766;53.194;5.532;2022-07-10T00:27:29;8.80;;;1.85;;
51556;SDS011;38766;53.194;5.532;2022-07-10T00:29:55;9.45;;;2.20;;
51556;SDS011;38766;53.194;5.532;2022-07-10T00:32:21;5.75;;;2.58;;
51556;SDS011;38766;53.194;5.532;2022-07-10T00:34:46;8.70;;;3.28;;
51556;SDS011;38766;53.194;5.532;2022-07-10T00:37:12;8.57;;;2.22;;
51556;SDS011;38766;53.194;5.532;2022-07-10T00:39:38;9.30;;;1.95;;
51556;SDS011;38766;53.194;5.532;2022-07-10T00:42:10;10.95;;;2.05;;
51556;SDS011;38766;53.194;5.532;2022-07-10T00:44:38;11.88;;;2.30;;
51556;SDS011;38766;53.194;5.532;2022-07-10T00:47:05;7.75;;;2.03;;
51556;SDS011;38766;53.194;5.532;2022-07-10T00:49:33;7.80;;;1.80;;
51556;SDS011;38766;53.194;5.532;2022-07-10T00:52:01;8.25;;;2.40;;
51556;SDS011;38766;53.194;5.532;2022-07-10T00:54:30;7.68;;;1.65;;
51556;SDS011;38766;53.194;5.532;2022-07-10T00:56:57;10.52;;;2.30;;
51556;SDS011;38766;53.194;5.532;2022-07-10T00:59:24;10.40;;;1.95;;
51556;SDS011;38766;53.194;5.532;2022-07-10T01:01:51;5.28;;;2.20;;
51556;SDS011;38766;53.194;5.532;2022-07-10T01:04:17;8.52;;;1.98;;
51556;SDS011;38766;53.194;5.532;2022-07-10T01:06:43;7.10;;;2.80;;
51556;SDS011;38766;53.194;5.532;2022-07-10T01:09:09;7.00;;;1.50;;
51556;SDS011;38766;53.194;5.532;2022-07-10T01:11:35;7.05;;;1.55;;
51556;SDS011;38766;53.194;5.532;2022-07-10T01:14:02;8.30;;;2.05;;
51556;SDS011;38766;53.194;5.532;2022-07-10T01:16:29;6.97;;;1.58;;
51556;SDS011;38766;53.194;5.532;2022-07-10T01:18:55;6.32;;;1.60;;
51556;SDS011;38766;53.194;5.532;2022-07-10T01:21:28;7.88;;;1.50;;
51556;SDS011;38766;53.194;5.532;2022-07-10T01:26:22;4.15;;;1.80;;
51556;SDS011;38766;53.194;5.532;2022-07-10T01:28:52;8.32;;;1.83;;
51556;SDS011;38766;53.194;5.532;2022-07-10T01:31:28;6.30;;;1.95;;
51556;SDS011;38766;53.194;5.532;2022-07-10T01:33:54;7.57;;;1.60;;
51556;SDS011;38766;53.194;5.532;2022-07-10T01:36:21;6.85;;;1.65;;
51556;SDS011;38766;53.194;5.532;2022-07-10T01:38:47;6.10;;;1.60;;
51556;SDS011;38766;53.194;5.532;2022-07-10T01:41:15;5.85;;;1.67;;
51556;SDS011;38766;53.194;5.532;2022-07-10T01:43:41;7.10;;;2.17;;
51556;SDS011;38766;53.194;5.532;2022-07-10T01:46:09;6.57;;;1.85;;
51556;SDS011;38766;53.194;5.532;2022-07-10T01:48:36;7.32;;;1.70;;
51556;SDS011;38766;53.194;5.532;2022-07-10T01:51:02;6.93;;;1.77;;
51556;SDS011;38766;53.194;5.532;2022-07-10T01:53:28;7.15;;;1.90;;
51556;SDS011;38766;53.194;5.532;2022-07-10T01:55:54;12.13;;;1.95;;
51556;SDS011;38766;53.194;5.532;2022-07-10T01:58:20;4.75;;;1.65;;
51556;SDS011;38766;53.194;5.532;2022-07-10T02:00:46;10.35;;;2.00;;
51556;SDS011;38766;53.194;5.532;2022-07-10T02:03:11;7.57;;;1.83;;
51556;SDS011;38766;53.194;5.532;2022-07-10T02:05:56;9.57;;;1.80;;
51556;SDS011;38766;53.194;5.532;2022-07-10T02:08:21;8.25;;;1.75;;
51556;SDS011;38766;53.194;5.532;2022-07-10T02:10:47;7.10;;;1.52;;
51556;SDS011;38766;53.194;5.532;2022-07-10T02:13:13;6.55;;;1.65;;
51556;SDS011;38766;53.194;5.532;2022-07-10T02:15:40;8.63;;;1.80;;
51556;SDS011;38766;53.194;5.532;2022-07-10T02:18:06;10.05;;;2.55;;
51556;SDS011;38766;53.194;5.532;2022-07-10T02:20:32;7.55;;;2.00;;
51556;SDS011;38766;53.194;5.532;2022-07-10T02:22:59;6.47;;;1.50;;
51556;SDS011;38766;53.194;5.532;2022-07-10T02:25:25;7.60;;;1.50;;
51556;SDS011;38766;53.194;5.532;2022-07-10T02:27:51;8.23;;;2.20;;
51556;SDS011;38766;53.194;5.532;2022-07-10T02:30:17;12.88;;;2.20;;
51556;SDS011;38766;53.194;5.532;2022-07-10T02:32:42;9.40;;;1.80;;
51556;SDS011;38766;53.194;5.532;2022-07-10T02:35:08;9.52;;;2.05;;
51556;SDS011;38766;53.194;5.532;2022-07-10T02:37:33;6.78;;;2.03;;
51556;SDS011;38766;53.194;5.532;2022-07-10T02:39:59;9.63;;;2.08;;
51556;SDS011;38766;53.194;5.532;2022-07-10T02:42:25;8.80;;;2.10;;
51556;SDS011;38766;53.194;5.532;2022-07-10T02:44:50;7.75;;;2.05;;
51556;SDS011;38766;53.194;5.532;2022-07-10T02:47:16;7.43;;;2.75;;
51556;SDS011;38766;53.194;5.532;2022-07-10T02:49:41;5.93;;;1.83;;
51556;SDS011;38766;53.194;5.532;2022-07-10T02:52:08;6.38;;;1.90;;
51556;SDS011;38766;53.194;5.532;2022-07-10T02:54:34;9.68;;;2.90;;
51556;SDS011;38766;53.194;5.532;2022-07-10T02:57:00;6.65;;;2.10;;
51556;SDS011;38766;53.194;5.532;2022-07-10T02:59:25;9.43;;;2.28;;
51556;SDS011;38766;53.194;5.532;2022-07-10T03:01:51;5.30;;;2.00;;
51556;SDS011;38766;53.194;5.532;2022-07-10T03:04:17;6.03;;;2.10;;
51556;SDS011;38766;53.194;5.532;2022-07-10T03:06:43;9.48;;;2.33;;
51556;SDS011;38766;53.194;5.532;2022-07-10T03:09:08;5.55;;;2.00;;
51556;SDS011;38766;53.194;5.532;2022-07-10T03:11:34;5.90;;;2.33;;
51556;SDS011;38766;53.194;5.532;2022-07-10T03:14:00;6.00;;;2.45;;
51556;SDS011;38766;53.194;5.532;2022-07-10T03:16:25;6.70;;;2.10;;
51556;SDS011;38766;53.194;5.532;2022-07-10T03:18:51;7.60;;;2.45;;
51556;SDS011;38766;53.194;5.532;2022-07-10T03:21:17;8.15;;;2.60;;
51556;SDS011;38766;53.194;5.532;2022-07-10T03:23:42;10.32;;;2.42;;
51556;SDS011;38766;53.194;5.532;2022-07-10T03:26:08;11.45;;;3.03;;
51556;SDS011;38766;53.194;5.532;2022-07-10T03:28:34;6.28;;;2.85;;
51556;SDS011;38766;53.194;5.532;2022-07-10T03:31:00;8.23;;;2.92;;
51556;SDS011;38766;53.194;5.532;2022-07-10T03:33:27;10.15;;;3.30;;
51556;SDS011;38766;53.194;5.532;2022-07-10T03:35:53;9.10;;;2.70;;
51556;SDS011;38766;53.194;5.532;2022-07-10T03:38:19;10.80;;;2.95;;
51556;SDS011;38766;53.194;5.532;2022-07-10T03:40:45;9.40;;;2.83;;
51556;SDS011;38766;53.194;5.532;2022-07-10T03:43:13;8.73;;;2.80;;
51556;SDS011;38766;53.194;5.532;2022-07-10T03:45:39;11.77;;;2.63;;
51556;SDS011;38766;53.194;5.532;2022-07-10T03:48:05;7.30;;;2.83;;
51556;SDS011;38766;53.194;5.532;2022-07-10T03:50:30;17.98;;;3.08;;
51556;SDS011;38766;53.194;5.532;2022-07-10T03:52:56;9.55;;;2.53;;
51556;SDS011;38766;53.194;5.532;2022-07-10T03:55:22;7.97;;;3.72;;
51556;SDS011;38766;53.194;5.532;2022-07-10T03:57:47;6.30;;;2.70;;
51556;SDS011;38766;53.194;5.532;2022-07-10T04:00:19;14.15;;;3.80;;
51556;SDS011;38766;53.194;5.532;2022-07-10T04:02:47;13.48;;;3.20;;
51556;SDS011;38766;53.194;5.532;2022-07-10T04:05:13;8.25;;;2.72;;
51556;SDS011;38766;53.194;5.532;2022-07-10T04:07:39;7.68;;;2.80;;
51556;SDS011;38766;53.194;5.532;2022-07-10T04:10:05;7.93;;;2.50;;
51556;SDS011;38766;53.194;5.532;2022-07-10T04:12:31;6.50;;;2.45;;
51556;SDS011;38766;53.194;5.532;2022-07-10T04:14:57;13.43;;;2.97;;
51556;SDS011;38766;53.194;5.532;2022-07-10T04:17:23;9.20;;;3.15;;
51556;SDS011;38766;53.194;5.532;2022-07-10T04:19:48;12.15;;;3.00;;
51556;SDS011;38766;53.194;5.532;2022-07-10T04:22:14;7.47;;;2.83;;
51556;SDS011;38766;53.194;5.532;2022-07-10T04:24:39;11.57;;;3.20;;
51556;SDS011;38766;53.194;5.532;2022-07-10T04:27:05;8.85;;;3.05;;
51556;SDS011;38766;53.194;5.532;2022-07-10T04:29:31;8.32;;;2.70;;
51556;SDS011;38766;53.194;5.532;2022-07-10T04:31:57;7.93;;;2.78;;
51556;SDS011;38766;53.194;5.532;2022-07-10T04:34:23;11.57;;;3.65;;
51556;SDS011;38766;53.194;5.532;2022-07-10T04:36:49;6.03;;;2.38;;
51556;SDS011;38766;53.194;5.532;2022-07-10T04:39:15;9.30;;;2.55;;
51556;SDS011;38766;53.194;5.532;2022-07-10T04:41:41;12.80;;;2.70;;
51556;SDS011;38766;53.194;5.532;2022-07-10T04:44:06;11.27;;;3.58;;
51556;SDS011;38766;53.194;5.532;2022-07-10T04:46:32;9.48;;;2.90;;
51556;SDS011;38766;53.194;5.532;2022-07-10T04:48:57;7.38;;;2.70;;
51556;SDS011;38766;53.194;5.532;2022-07-10T04:51:23;10.15;;;3.33;;
51556;SDS011;38766;53.194;5.532;2022-07-10T04:53:49;7.90;;;2.60;;
51556;SDS011;38766;53.194;5.532;2022-07-10T04:56:15;7.95;;;2.67;;
51556;SDS011;38766;53.194;5.532;2022-07-10T04:58:40;6.20;;;2.20;;
51556;SDS011;38766;53.194;5.532;2022-07-10T05:01:06;6.40;;;2.22;;
51556;SDS011;38766;53.194;5.532;2022-07-10T05:03:32;7.18;;;2.17;;
51556;SDS011;38766;53.194;5.532;2022-07-10T05:05:57;6.63;;;1.88;;
51556;SDS011;38766;53.194;5.532;2022-07-10T05:08:23;9.38;;;1.80;;
51556;SDS011;38766;53.194;5.532;2022-07-10T05:10:49;7.50;;;1.98;;
51556;SDS011;38766;53.194;5.532;2022-07-10T05:13:15;3.97;;;2.08;;
51556;SDS011;38766;53.194;5.532;2022-07-10T05:15:40;7.43;;;2.17;;
51556;SDS011;38766;53.194;5.532;2022-07-10T05:18:06;3.88;;;1.98;;
51556;SDS011;38766;53.194;5.532;2022-07-10T05:20:31;7.25;;;2.00;;
51556;SDS011;38766;53.194;5.532;2022-07-10T05:22:58;5.43;;;2.33;;
51556;SDS011;38766;53.194;5.532;2022-07-10T05:25:24;9.85;;;2.40;;
51556;SDS011;38766;53.194;5.532;2022-07-10T05:27:51;7.50;;;3.25;;
51556;SDS011;38766;53.194;5.532;2022-07-10T05:30:17;6.60;;;2.10;;
51556;SDS011;38766;53.194;5.532;2022-07-10T05:32:45;7.25;;;2.50;;
51556;SDS011;38766;53.194;5.532;2022-07-10T05:35:14;5.50;;;2.28;;
51556;SDS011;38766;53.194;5.532;2022-07-10T05:37:40;5.82;;;2.30;;
51556;SDS011;38766;53.194;5.532;2022-07-10T05:40:06;11.77;;;2.63;;
51556;SDS011;38766;53.194;5.532;2022-07-10T05:42:33;7.60;;;2.40;;
51556;SDS011;38766;53.194;5.532;2022-07-10T05:44:59;6.35;;;2.63;;
51556;SDS011;38766;53.194;5.532;2022-07-10T05:47:24;6.13;;;2.33;;
51556;SDS011;38766;53.194;5.532;2022-07-10T05:49:50;10.25;;;2.22;;
51556;SDS011;38766;53.194;5.532;2022-07-10T05:52:16;10.25;;;2.50;;
51556;SDS011;38766;53.194;5.532;2022-07-10T05:54:41;6.68;;;2.70;;
51556;SDS011;38766;53.194;5.532;2022-07-10T05:57:07;6.20;;;2.33;;
51556;SDS011;38766;53.194;5.532;2022-07-10T05:59:33;7.78;;;2.40;;
51556;SDS011;38766;53.194;5.532;2022-07-10T06:02:00;9.25;;;2.67;;
51556;SDS011;38766;53.194;5.532;2022-07-10T06:04:26;8.82;;;2.60;;
51556;SDS011;38766;53.194;5.532;2022-07-10T06:06:51;6.70;;;2.70;;
51556;SDS011;38766;53.194;5.532;2022-07-10T06:09:17;5.95;;;2.25;;
51556;SDS011;38766;53.194;5.532;2022-07-10T06:11:43;8.60;;;2.75;;
51556;SDS011;38766;53.194;5.532;2022-07-10T06:14:10;9.73;;;2.60;;
51556;SDS011;38766;53.194;5.532;2022-07-10T06:16:39;4.20;;;2.17;;
51556;SDS011;38766;53.194;5.532;2022-07-10T06:19:05;5.50;;;2.17;;
51556;SDS011;38766;53.194;5.532;2022-07-10T06:21:31;6.90;;;2.20;;
51556;SDS011;38766;53.194;5.532;2022-07-10T06:23:56;6.53;;;2.50;;
51556;SDS011;38766;53.194;5.532;2022-07-10T06:26:22;6.57;;;2.20;;
51556;SDS011;38766;53.194;5.532;2022-07-10T06:28:48;6.03;;;2.30;;
51556;SDS011;38766;53.194;5.532;2022-07-10T06:31:13;6.43;;;2.50;;
51556;SDS011;38766;53.194;5.532;2022-07-10T06:33:39;7.20;;;2.47;;
51556;SDS011;38766;53.194;5.532;2022-07-10T06:36:05;6.65;;;2.30;;
51556;SDS011;38766;53.194;5.532;2022-07-10T06:38:31;5.97;;;2.28;;
51556;SDS011;38766;53.194;5.532;2022-07-10T06:40:57;4.07;;;2.13;;
51556;SDS011;38766;53.194;5.532;2022-07-10T06:43:22;6.88;;;2.10;;
51556;SDS011;38766;53.194;5.532;2022-07-10T06:45:48;2.97;;;2.17;;
51556;SDS011;38766;53.194;5.532;2022-07-10T06:48:14;8.73;;;2.70;;
51556;SDS011;38766;53.194;5.532;2022-07-10T06:50:40;4.30;;;2.05;;
51556;SDS011;38766;53.194;5.532;2022-07-10T06:53:06;7.18;;;2.50;;
51556;SDS011;38766;53.194;5.532;2022-07-10T06:55:32;10.63;;;2.38;;
51556;SDS011;38766;53.194;5.532;2022-07-10T06:57:58;6.20;;;2.53;;
51556;SDS011;38766;53.194;5.532;2022-07-10T07:00:24;8.73;;;2.42;;
51556;SDS011;38766;53.194;5.532;2022-07-10T07:02:51;11.13;;;2.28;;
51556;SDS011;38766;53.194;5.532;2022-07-10T07:05:16;4.82;;;2.60;;
51556;SDS011;38766;53.194;5.532;2022-07-10T07:07:42;6.00;;;2.20;;
51556;SDS011;38766;53.194;5.532;2022-07-10T07:10:08;6.80;;;2.30;;
51556;SDS011;38766;53.194;5.532;2022-07-10T07:12:35;3.78;;;2.10;;
51556;SDS011;38766;53.194;5.532;2022-07-10T07:15:01;7.90;;;2.10;;
51556;SDS011;38766;53.194;5.532;2022-07-10T07:17:27;5.25;;;1.95;;
51556;SDS011;38766;53.194;5.532;2022-07-10T07:19:59;5.72;;;2.10;;
51556;SDS011;38766;53.194;5.532;2022-07-10T07:22:44;9.00;;;2.13;;
51556;SDS011;38766;53.194;5.532;2022-07-10T07:25:28;5.70;;;2.40;;
51556;SDS011;38766;53.194;5.532;2022-07-10T07:27:57;9.90;;;2.25;;
51556;SDS011;38766;53.194;5.532;2022-07-10T07:30:23;4.68;;;1.95;;
51556;SDS011;38766;53.194;5.532;2022-07-10T07:32:49;7.22;;;1.90;;
51556;SDS011;38766;53.194;5.532;2022-07-10T07:35:15;4.65;;;2.00;;
51556;SDS011;38766;53.194;5.532;2022-07-10T07:37:45;6.80;;;2.58;;
51556;SDS011;38766;53.194;5.532;2022-07-10T07:40:16;5.13;;;2.55;;
51556;SDS011;38766;53.194;5.532;2022-07-10T07:42:50;9.68;;;2.25;;
51556;SDS011;38766;53.194;5.532;2022-07-10T07:45:20;2.40;;;1.67;;
51556;SDS011;38766;53.194;5.532;2022-07-10T07:47:48;6.00;;;2.55;;
51556;SDS011;38766;53.194;5.532;2022-07-10T07:50:22;5.85;;;1.90;;
51556;SDS011;38766;53.194;5.532;2022-07-10T07:52:53;6.78;;;1.92;;
51556;SDS011;38766;53.194;5.532;2022-07-10T07:55:20;7.40;;;2.13;;
51556;SDS011;38766;53.194;5.532;2022-07-10T07:57:47;3.75;;;2.00;;
51556;SDS011;38766;53.194;5.532;2022-07-10T08:00:16;4.40;;;1.83;;
51556;SDS011;38766;53.194;5.532;2022-07-10T08:02:47;6.53;;;2.17;;
51556;SDS011;38766;53.194;5.532;2022-07-10T08:05:13;7.20;;;2.65;;
51556;SDS011;38766;53.194;5.532;2022-07-10T08:07:40;6.78;;;2.20;;
51556;SDS011;38766;53.194;5.532;2022-07-10T08:10:12;3.22;;;2.15;;
51556;SDS011;38766;53.194;5.532;2022-07-10T08:12:39;7.85;;;2.15;;
51556;SDS011;38766;53.194;5.532;2022-07-10T08:15:07;6.93;;;2.30;;
51556;SDS011;38766;53.194;5.532;2022-07-10T08:17:34;7.03;;;2.25;;
51556;SDS011;38766;53.194;5.532;2022-07-10T08:19:59;4.53;;;2.05;;
51556;SDS011;38766;53.194;5.532;2022-07-10T08:22:25;6.80;;;2.45;;
51556;SDS011;38766;53.194;5.532;2022-07-10T08:24:51;4.47;;;2.30;;
51556;SDS011;38766;53.194;5.532;2022-07-10T08:27:17;12.85;;;2.47;;
51556;SDS011;38766;53.194;5.532;2022-07-10T08:29:43;6.13;;;2.17;;
51556;SDS011;38766;53.194;5.532;2022-07-10T08:32:08;6.40;;;2.20;;
51556;SDS011;38766;53.194;5.532;2022-07-10T08:34:37;6.78;;;2.13;;
51556;SDS011;38766;53.194;5.532;2022-07-10T08:37:03;5.20;;;2.20;;
51556;SDS011;38766;53.194;5.532;2022-07-10T08:39:28;4.28;;;1.77;;
51556;SDS011;38766;53.194;5.532;2022-07-10T08:41:54;6.55;;;1.83;;
51556;SDS011;38766;53.194;5.532;2022-07-10T08:44:20;7.50;;;2.10;;
51556;SDS011;38766;53.194;5.532;2022-07-10T08:46:46;5.50;;;1.83;;
51556;SDS011;38766;53.194;5.532;2022-07-10T08:49:12;6.75;;;2.15;;
51556;SDS011;38766;53.194;5.532;2022-07-10T08:51:41;6.70;;;2.30;;
51556;SDS011;38766;53.194;5.532;2022-07-10T08:54:13;8.60;;;2.13;;
51556;SDS011;38766;53.194;5.532;2022-07-10T08:56:40;4.40;;;2.55;;
51556;SDS011;38766;53.194;5.532;2022-07-10T08:59:06;6.32;;;2.33;;
51556;SDS011;38766;53.194;5.532;2022-07-10T09:01:33;7.00;;;2.58;;
51556;SDS011;38766;53.194;5.532;2022-07-10T09:03:59;4.93;;;1.92;;
51556;SDS011;38766;53.194;5.532;2022-07-10T09:06:24;5.38;;;2.00;;
51556;SDS011;38766;53.194;5.532;2022-07-10T09:09:00;7.63;;;1.95;;
51556;SDS011;38766;53.194;5.532;2022-07-10T09:11:30;4.40;;;1.75;;
51556;SDS011;38766;53.194;5.532;2022-07-10T09:13:58;7.47;;;1.70;;
51556;SDS011;38766;53.194;5.532;2022-07-10T09:16:25;4.80;;;1.92;;
51556;SDS011;38766;53.194;5.532;2022-07-10T09:18:55;5.50;;;1.85;;
51556;SDS011;38766;53.194;5.532;2022-07-10T09:21:21;4.88;;;1.95;;
51556;SDS011;38766;53.194;5.532;2022-07-10T09:23:48;7.45;;;1.92;;
51556;SDS011;38766;53.194;5.532;2022-07-10T09:26:14;7.07;;;2.20;;
51556;SDS011;38766;53.194;5.532;2022-07-10T09:28:40;9.05;;;2.38;;
51556;SDS011;38766;53.194;5.532;2022-07-10T09:31:05;4.07;;;1.60;;
51556;SDS011;38766;53.194;5.532;2022-07-10T09:33:32;8.07;;;2.60;;
51556;SDS011;38766;53.194;5.532;2022-07-10T09:36:06;6.40;;;1.85;;
51556;SDS011;38766;53.194;5.532;2022-07-10T09:41:29;6.35;;;1.73;;
51556;SDS011;38766;53.194;5.532;2022-07-10T09:46:23;5.40;;;1.75;;
51556;SDS011;38766;53.194;5.532;2022-07-10T09:49:03;4.47;;;1.77;;
51556;SDS011;38766;53.194;5.532;2022-07-10T09:51:35;8.50;;;1.83;;
51556;SDS011;38766;53.194;5.532;2022-07-10T09:54:02;4.63;;;1.77;;
51556;SDS011;38766;53.194;5.532;2022-07-10T09:56:30;2.67;;;1.60;;
51556;SDS011;38766;53.194;5.532;2022-07-10T09:59:19;3.78;;;1.70;;
51556;SDS011;38766;53.194;5.532;2022-07-10T10:01:49;3.15;;;1.60;;
51556;SDS011;38766;53.194;5.532;2022-07-10T10:04:19;4.95;;;1.80;;
51556;SDS011;38766;53.194;5.532;2022-07-10T10:06:52;6.88;;;1.85;;
51556;SDS011;38766;53.194;5.532;2022-07-10T10:09:25;3.25;;;1.55;;
51556;SDS011;38766;53.194;5.532;2022-07-10T10:11:54;3.83;;;1.70;;
51556;SDS011;38766;53.194;5.532;2022-07-10T10:14:23;2.05;;;1.50;;
51556;SDS011;38766;53.194;5.532;2022-07-10T10:16:49;3.58;;;1.33;;
51556;SDS011;38766;53.194;5.532;2022-07-10T10:19:16;4.10;;;1.50;;
51556;SDS011;38766;53.194;5.532;2022-07-10T10:22:03;4.93;;;1.65;;
51556;SDS011;38766;53.194;5.532;2022-07-10T10:24:31;6.25;;;1.50;;
51556;SDS011;38766;53.194;5.532;2022-07-10T10:26:58;5.03;;;1.70;;
51556;SDS011;38766;53.194;5.532;2022-07-10T10:29:24;3.67;;;1.90;;
51556;SDS011;38766;53.194;5.532;2022-07-10T10:31:50;4.43;;;2.17;;
51556;SDS011;38766;53.194;5.532;2022-07-10T10:34:26;3.35;;;1.77;;
51556;SDS011;38766;53.194;5.532;2022-07-10T10:39:55;4.57;;;1.73;;
51556;SDS011;38766;53.194;5.532;2022-07-10T10:42:38;3.65;;;2.00;;
51556;SDS011;38766;53.194;5.532;2022-07-10T10:48:09;8.02;;;2.00;;
51556;SDS011;38766;53.194;5.532;2022-07-10T10:50:53;7.15;;;1.77;;
51556;SDS011;38766;53.194;5.532;2022-07-10T10:53:24;3.50;;;1.80;;
51556;SDS011;38766;53.194;5.532;2022-07-10T11:01:05;8.23;;;1.95;;
51556;SDS011;38766;53.194;5.532;2022-07-10T11:06:38;5.43;;;1.90;;
51556;SDS011;38766;53.194;5.532;2022-07-10T11:11:59;5.55;;;1.85;;
51556;SDS011;38766;53.194;5.532;2022-07-10T11:14:26;4.72;;;1.70;;
51556;SDS011;38766;53.194;5.532;2022-07-10T11:16:54;3.35;;;1.70;;
51556;SDS011;38766;53.194;5.532;2022-07-10T11:19:21;3.88;;;1.60;;
51556;SDS011;38766;53.194;5.532;2022-07-10T11:21:49;2.67;;;1.60;;
51556;SDS011;38766;53.194;5.532;2022-07-10T11:24:42;2.47;;;1.50;;
51556;SDS011;38766;53.194;5.532;2022-07-10T11:27:15;3.92;;;1.40;;
51556;SDS011;38766;53.194;5.532;2022-07-10T11:29:59;2.38;;;1.75;;
51556;SDS011;38766;53.194;5.532;2022-07-10T11:32:25;3.00;;;1.67;;
51556;SDS011;38766;53.194;5.532;2022-07-10T11:34:51;2.33;;;1.35;;
51556;SDS011;38766;53.194;5.532;2022-07-10T11:37:17;7.53;;;1.50;;
51556;SDS011;38766;53.194;5.532;2022-07-10T11:39:43;3.67;;;1.67;;
51556;SDS011;38766;53.194;5.532;2022-07-10T11:42:09;2.30;;;1.67;;
51556;SDS011;38766;53.194;5.532;2022-07-10T11:44:35;2.33;;;1.67;;
51556;SDS011;38766;53.194;5.532;2022-07-10T11:47:01;3.53;;;1.50;;
51556;SDS011;38766;53.194;5.532;2022-07-10T11:49:28;2.88;;;1.67;;
51556;SDS011;38766;53.194;5.532;2022-07-10T11:51:54;5.97;;;2.10;;
51556;SDS011;38766;53.194;5.532;2022-07-10T11:54:25;4.13;;;1.70;;
51556;SDS011;38766;53.194;5.532;2022-07-10T11:56:51;2.53;;;1.75;;
51556;SDS011;38766;53.194;5.532;2022-07-10T11:59:18;2.03;;;1.30;;
51556;SDS011;38766;53.194;5.532;2022-07-10T12:01:53;3.03;;;1.27;;
51556;SDS011;38766;53.194;5.532;2022-07-10T12:04:21;4.45;;;1.50;;
51556;SDS011;38766;53.194;5.532;2022-07-10T12:06:52;4.00;;;1.67;;
51556;SDS011;38766;53.194;5.532;2022-07-10T12:09:20;3.80;;;1.35;;
51556;SDS011;38766;53.194;5.532;2022-07-10T12:11:59;3.25;;;1.65;;
51556;SDS011;38766;53.194;5.532;2022-07-10T12:14:29;4.63;;;1.90;;
51556;SDS011;38766;53.194;5.532;2022-07-10T12:16:56;3.13;;;1.60;;
51556;SDS011;38766;53.194;5.532;2022-07-10T12:19:23;4.72;;;1.63;;
51556;SDS011;38766;53.194;5.532;2022-07-10T12:21:52;2.63;;;1.40;;
51556;SDS011;38766;53.194;5.532;2022-07-10T12:24:19;2.88;;;1.80;;
51556;SDS011;38766;53.194;5.532;2022-07-10T12:26:46;4.05;;;1.60;;
51556;SDS011;38766;53.194;5.532;2022-07-10T12:29:19;3.03;;;1.35;;
51556;SDS011;38766;53.194;5.532;2022-07-10T12:31:46;2.00;;;1.40;;
51556;SDS011;38766;53.194;5.532;2022-07-10T12:34:13;3.75;;;1.58;;
51556;SDS011;38766;53.194;5.532;2022-07-10T12:39:12;5.55;;;2.10;;
51556;SDS011;38766;53.194;5.532;2022-07-10T12:44:41;6.10;;;1.73;;
51556;SDS011;38766;53.194;5.532;2022-07-10T12:47:09;2.13;;;1.70;;
51556;SDS011;38766;53.194;5.532;2022-07-10T13:00:35;4.15;;;1.42;;
51556;SDS011;38766;53.194;5.532;2022-07-10T13:03:02;4.13;;;1.95;;
51556;SDS011;38766;53.194;5.532;2022-07-10T13:05:36;5.55;;;2.08;;
51556;SDS011;38766;53.194;5.532;2022-07-10T13:10:49;4.53;;;2.30;;
51556;SDS011;38766;53.194;5.532;2022-07-10T13:13:16;5.38;;;2.10;;
51556;SDS011;38766;53.194;5.532;2022-07-10T13:15:44;6.45;;;2.22;;
51556;SDS011;38766;53.194;5.532;2022-07-10T13:18:15;6.15;;;1.83;;
51556;SDS011;38766;53.194;5.532;2022-07-10T13:20:43;9.02;;;2.60;;
51556;SDS011;38766;53.194;5.532;2022-07-10T13:23:09;5.68;;;2.72;;
51556;SDS011;38766;53.194;5.532;2022-07-10T13:25:36;4.05;;;2.15;;
51556;SDS011;38766;53.194;5.532;2022-07-10T13:28:02;4.53;;;2.40;;
51556;SDS011;38766;53.194;5.532;2022-07-10T13:30:27;4.78;;;1.90;;
51556;SDS011;38766;53.194;5.532;2022-07-10T13:32:53;3.47;;;2.15;;
51556;SDS011;38766;53.194;5.532;2022-07-10T13:35:19;5.80;;;2.00;;
51556;SDS011;38766;53.194;5.532;2022-07-10T13:37:44;4.57;;;2.03;;
51556;SDS011;38766;53.194;5.532;2022-07-10T13:40:11;4.50;;;2.17;;
51556;SDS011;38766;53.194;5.532;2022-07-10T13:42:37;3.47;;;2.28;;
51556;SDS011;38766;53.194;5.532;2022-07-10T13:45:03;6.15;;;2.00;;
51556;SDS011;38766;53.194;5.532;2022-07-10T13:47:29;5.65;;;2.17;;
51556;SDS011;38766;53.194;5.532;2022-07-10T13:49:55;6.47;;;2.40;;
51556;SDS011;38766;53.194;5.532;2022-07-10T13:52:21;4.88;;;2.00;;
51556;SDS011;38766;53.194;5.532;2022-07-10T13:54:46;3.95;;;2.33;;
51556;SDS011;38766;53.194;5.532;2022-07-10T13:57:12;4.22;;;2.40;;
51556;SDS011;38766;53.194;5.532;2022-07-10T13:59:38;7.53;;;2.40;;
51556;SDS011;38766;53.194;5.532;2022-07-10T14:02:04;7.10;;;2.67;;
51556;SDS011;38766;53.194;5.532;2022-07-10T14:04:29;5.47;;;2.60;;
51556;SDS011;38766;53.194;5.532;2022-07-10T14:06:55;4.05;;;2.08;;
51556;SDS011;38766;53.194;5.532;2022-07-10T14:09:21;7.30;;;2.63;;
51556;SDS011;38766;53.194;5.532;2022-07-10T14:11:48;8.38;;;3.10;;
51556;SDS011;38766;53.194;5.532;2022-07-10T14:14:15;4.00;;;2.58;;
51556;SDS011;38766;53.194;5.532;2022-07-10T14:16:41;5.05;;;3.08;;
51556;SDS011;38766;53.194;5.532;2022-07-10T14:19:08;6.35;;;2.78;;
51556;SDS011;38766;53.194;5.532;2022-07-10T14:21:34;5.80;;;2.53;;
51556;SDS011;38766;53.194;5.532;2022-07-10T14:24:01;5.55;;;2.33;;
51556;SDS011;38766;53.194;5.532;2022-07-10T14:26:28;9.50;;;2.90;;
51556;SDS011;38766;53.194;5.532;2022-07-10T14:28:54;7.25;;;2.90;;
51556;SDS011;38766;53.194;5.532;2022-07-10T14:31:20;7.93;;;3.40;;
51556;SDS011;38766;53.194;5.532;2022-07-10T14:33:46;7.55;;;3.05;;
51556;SDS011;38766;53.194;5.532;2022-07-10T14:36:11;8.95;;;3.30;;
51556;SDS011;38766;53.194;5.532;2022-07-10T14:38:37;7.18;;;2.90;;
51556;SDS011;38766;53.194;5.532;2022-07-10T14:41:03;8.60;;;3.47;;
51556;SDS011;38766;53.194;5.532;2022-07-10T14:43:31;7.18;;;3.40;;
51556;SDS011;38766;53.194;5.532;2022-07-10T14:45:58;10.50;;;3.42;;
51556;SDS011;38766;53.194;5.532;2022-07-10T14:48:28;6.10;;;3.15;;
51556;SDS011;38766;53.194;5.532;2022-07-10T14:50:58;6.13;;;2.80;;
51556;SDS011;38766;53.194;5.532;2022-07-10T14:53:23;5.38;;;2.88;;
51556;SDS011;38766;53.194;5.532;2022-07-10T14:55:49;7.35;;;3.13;;
51556;SDS011;38766;53.194;5.532;2022-07-10T14:58:15;6.90;;;3.30;;
51556;SDS011;38766;53.194;5.532;2022-07-10T15:00:41;6.75;;;3.47;;
51556;SDS011;38766;53.194;5.532;2022-07-10T15:03:07;6.65;;;3.17;;
51556;SDS011;38766;53.194;5.532;2022-07-10T15:05:33;7.05;;;3.05;;
51556;SDS011;38766;53.194;5.532;2022-07-10T15:08:00;12.25;;;3.08;;
51556;SDS011;38766;53.194;5.532;2022-07-10T15:10:27;10.05;;;3.35;;
51556;SDS011;38766;53.194;5.532;2022-07-10T15:12:53;4.93;;;3.05;;
51556;SDS011;38766;53.194;5.532;2022-07-10T15:15:19;7.72;;;4.03;;
51556;SDS011;38766;53.194;5.532;2022-07-10T15:17:44;6.97;;;2.92;;
51556;SDS011;38766;53.194;5.532;2022-07-10T15:20:10;7.75;;;2.67;;
51556;SDS011;38766;53.194;5.532;2022-07-10T15:22:36;4.97;;;2.75;;
51556;SDS011;38766;53.194;5.532;2022-07-10T15:25:02;6.28;;;2.97;;
51556;SDS011;38766;53.194;5.532;2022-07-10T15:27:28;8.32;;;3.05;;
51556;SDS011;38766;53.194;5.532;2022-07-10T15:29:54;5.95;;;2.80;;